sensor_id;sensor_type;location;lat;lon;timestamp;P1;durP1;ratioP1;P2;durP2;ratioP2
44165;SDS011;30476;53.468;9.826;2023-06-19T00:00:17;7.97;;;7.37;;
44165;SDS011;30476;53.468;9.826;2023-06-19T00:02:43;8.00;;;7.40;;
44165;SDS011;30476;53.468;9.826;2023-06-19T00:05:09;8.53;;;8.03;;
44165;SDS011;30476;53.468;9.826;2023-06-19T00:07:36;7.80;;;7.40;;
44165;SDS011;30476;53.468;9.826;2023-06-19T00:10:02;8.63;;;7.93;;
44165;SDS011;30476;53.468;9.826;2023-06-19T00:12:29;8.67;;;8.10;;
44165;SDS011;30476;53.468;9.826;2023-06-19T00:14:55;9.40;;;8.70;;
44165;SDS011;30476;53.468;9.826;2023-06-19T00:17:20;9.00;;;8.30;;
44165;SDS011;30476;53.468;9.826;2023-06-19T00:19:46;9.30;;;8.50;;
44165;SDS011;30476;53.468;9.826;2023-06-19T00:22:14;8.67;;;7.97;;
44165;SDS011;30476;53.468;9.826;2023-06-19T00:24:40;9.50;;;8.90;;
44165;SDS011;30476;53.468;9.826;2023-06-19T00:27:06;9.47;;;8.60;;
44165;SDS011;30476;53.468;9.826;2023-06-19T00:29:32;8.80;;;8.23;;
44165;SDS011;30476;53.468;9.826;2023-06-19T00:31:59;8.47;;;7.97;;
44165;SDS011;30476;53.468;9.826;2023-06-19T00:34:24;8.70;;;8.00;;
44165;SDS011;30476;53.468;9.826;2023-06-19T00:36:51;9.20;;;8.50;;
44165;SDS011;30476;53.468;9.826;2023-06-19T00:39:19;8.77;;;8.17;;
44165;SDS011;30476;53.468;9.826;2023-06-19T00:41:45;8.37;;;7.87;;
44165;SDS011;30476;53.468;9.826;2023-06-19T00:44:13;8.67;;;8.07;;
44165;SDS011;30476;53.468;9.826;2023-06-19T00:46:40;8.90;;;8.30;;
44165;SDS011;30476;53.468;9.826;2023-06-19T00:49:07;8.77;;;8.17;;
44165;SDS011;30476;53.468;9.826;2023-06-19T00:51:33;9.17;;;8.43;;
44165;SDS011;30476;53.468;9.826;2023-06-19T00:53:59;9.17;;;8.57;;
44165;SDS011;30476;53.468;9.826;2023-06-19T00:56:25;9.40;;;8.70;;
44165;SDS011;30476;53.468;9.826;2023-06-19T00:58:52;9.90;;;9.20;;
44165;SDS011;30476;53.468;9.826;2023-06-19T01:01:19;9.57;;;8.93;;
44165;SDS011;30476;53.468;9.826;2023-06-19T01:03:46;9.90;;;9.20;;
44165;SDS011;30476;53.468;9.826;2023-06-19T01:06:13;9.90;;;9.20;;
44165;SDS011;30476;53.468;9.826;2023-06-19T01:09:02;9.03;;;8.33;;
44165;SDS011;30476;53.468;9.826;2023-06-19T01:11:33;8.97;;;8.17;;
44165;SDS011;30476;53.468;9.826;2023-06-19T01:14:15;9.40;;;8.60;;
44165;SDS011;30476;53.468;9.826;2023-06-19T01:16:53;10.83;;;10.03;;
44165;SDS011;30476;53.468;9.826;2023-06-19T01:19:20;9.60;;;9.00;;
44165;SDS011;30476;53.468;9.826;2023-06-19T01:21:47;10.10;;;9.20;;
44165;SDS011;30476;53.468;9.826;2023-06-19T01:24:13;10.07;;;9.47;;
44165;SDS011;30476;53.468;9.826;2023-06-19T01:26:39;10.43;;;9.73;;
44165;SDS011;30476;53.468;9.826;2023-06-19T01:29:06;9.63;;;9.03;;
44165;SDS011;30476;53.468;9.826;2023-06-19T01:31:44;10.80;;;9.90;;
44165;SDS011;30476;53.468;9.826;2023-06-19T01:34:15;9.70;;;9.00;;
44165;SDS011;30476;53.468;9.826;2023-06-19T01:36:44;11.00;;;10.20;;
44165;SDS011;30476;53.468;9.826;2023-06-19T01:39:13;10.23;;;9.50;;
44165;SDS011;30476;53.468;9.826;2023-06-19T01:41:41;10.60;;;9.90;;
44165;SDS011;30476;53.468;9.826;2023-06-19T01:44:08;10.00;;;9.30;;
44165;SDS011;30476;53.468;9.826;2023-06-19T01:46:34;10.73;;;9.93;;
44165;SDS011;30476;53.468;9.826;2023-06-19T01:49:00;10.60;;;9.90;;
44165;SDS011;30476;53.468;9.826;2023-06-19T01:51:25;10.67;;;9.60;;
44165;SDS011;30476;53.468;9.826;2023-06-19T01:53:51;11.77;;;9.63;;
44165;SDS011;30476;53.468;9.826;2023-06-19T01:56:17;10.83;;;10.03;;
44165;SDS011;30476;53.468;9.826;2023-06-19T01:58:43;11.37;;;10.57;;
44165;SDS011;30476;53.468;9.826;2023-06-19T02:01:08;11.43;;;10.70;;
44165;SDS011;30476;53.468;9.826;2023-06-19T02:03:34;10.40;;;9.70;;
44165;SDS011;30476;53.468;9.826;2023-06-19T02:06:00;11.37;;;10.43;;
44165;SDS011;30476;53.468;9.826;2023-06-19T02:08:26;10.90;;;10.03;;
44165;SDS011;30476;53.468;9.826;2023-06-19T02:10:51;12.03;;;11.17;;
44165;SDS011;30476;53.468;9.826;2023-06-19T02:13:17;11.33;;;10.63;;
44165;SDS011;30476;53.468;9.826;2023-06-19T02:15:43;11.80;;;10.90;;
44165;SDS011;30476;53.468;9.826;2023-06-19T02:18:08;10.27;;;9.60;;
44165;SDS011;30476;53.468;9.826;2023-06-19T02:20:34;10.83;;;9.80;;
44165;SDS011;30476;53.468;9.826;2023-06-19T02:23:00;10.20;;;9.47;;
44165;SDS011;30476;53.468;9.826;2023-06-19T02:25:26;10.83;;;10.10;;
44165;SDS011;30476;53.468;9.826;2023-06-19T02:27:51;10.80;;;10.00;;
44165;SDS011;30476;53.468;9.826;2023-06-19T02:30:17;11.67;;;10.77;;
44165;SDS011;30476;53.468;9.826;2023-06-19T02:32:43;10.63;;;9.97;;
44165;SDS011;30476;53.468;9.826;2023-06-19T02:35:09;11.23;;;10.43;;
44165;SDS011;30476;53.468;9.826;2023-06-19T02:37:35;11.53;;;10.63;;
44165;SDS011;30476;53.468;9.826;2023-06-19T02:40:03;12.10;;;10.93;;
44165;SDS011;30476;53.468;9.826;2023-06-19T02:42:30;11.30;;;10.40;;
44165;SDS011;30476;53.468;9.826;2023-06-19T02:44:56;12.00;;;11.00;;
44165;SDS011;30476;53.468;9.826;2023-06-19T02:47:28;12.43;;;11.43;;
44165;SDS011;30476;53.468;9.826;2023-06-19T02:49:58;11.33;;;10.33;;
44165;SDS011;30476;53.468;9.826;2023-06-19T02:52:24;11.73;;;10.87;;
44165;SDS011;30476;53.468;9.826;2023-06-19T02:54:50;12.43;;;11.33;;
44165;SDS011;30476;53.468;9.826;2023-06-19T02:57:16;11.43;;;10.63;;
44165;SDS011;30476;53.468;9.826;2023-06-19T02:59:42;11.40;;;10.70;;
44165;SDS011;30476;53.468;9.826;2023-06-19T03:02:07;12.17;;;11.27;;
44165;SDS011;30476;53.468;9.826;2023-06-19T03:04:33;12.67;;;11.77;;
44165;SDS011;30476;53.468;9.826;2023-06-19T03:06:59;12.90;;;12.07;;
44165;SDS011;30476;53.468;9.826;2023-06-19T03:09:25;13.10;;;12.20;;
44165;SDS011;30476;53.468;9.826;2023-06-19T03:11:51;12.57;;;11.77;;
44165;SDS011;30476;53.468;9.826;2023-06-19T03:14:17;13.40;;;12.27;;
44165;SDS011;30476;53.468;9.826;2023-06-19T03:16:43;13.23;;;12.23;;
44165;SDS011;30476;53.468;9.826;2023-06-19T03:19:09;12.50;;;11.60;;
44165;SDS011;30476;53.468;9.826;2023-06-19T03:21:34;12.90;;;12.00;;
44165;SDS011;30476;53.468;9.826;2023-06-19T03:24:00;12.30;;;11.33;;
44165;SDS011;30476;53.468;9.826;2023-06-19T03:26:26;12.90;;;11.87;;
44165;SDS011;30476;53.468;9.826;2023-06-19T03:28:52;13.07;;;12.17;;
44165;SDS011;30476;53.468;9.826;2023-06-19T03:31:18;13.63;;;12.63;;
44165;SDS011;30476;53.468;9.826;2023-06-19T03:33:44;13.37;;;12.27;;
44165;SDS011;30476;53.468;9.826;2023-06-19T03:36:09;13.63;;;12.53;;
44165;SDS011;30476;53.468;9.826;2023-06-19T03:38:35;13.63;;;12.27;;
44165;SDS011;30476;53.468;9.826;2023-06-19T03:41:01;12.90;;;12.00;;
44165;SDS011;30476;53.468;9.826;2023-06-19T03:43:27;13.17;;;12.27;;
44165;SDS011;30476;53.468;9.826;2023-06-19T03:45:53;12.37;;;11.47;;
44165;SDS011;30476;53.468;9.826;2023-06-19T03:48:19;12.30;;;11.50;;
44165;SDS011;30476;53.468;9.826;2023-06-19T03:50:44;12.17;;;11.17;;
44165;SDS011;30476;53.468;9.826;2023-06-19T03:53:10;12.63;;;11.63;;
44165;SDS011;30476;53.468;9.826;2023-06-19T03:55:36;13.23;;;12.23;;
44165;SDS011;30476;53.468;9.826;2023-06-19T03:58:02;12.20;;;11.40;;
44165;SDS011;30476;53.468;9.826;2023-06-19T04:00:27;12.63;;;11.77;;
44165;SDS011;30476;53.468;9.826;2023-06-19T04:02:53;12.93;;;11.93;;
44165;SDS011;30476;53.468;9.826;2023-06-19T04:05:19;12.97;;;11.97;;
44165;SDS011;30476;53.468;9.826;2023-06-19T04:07:45;13.50;;;12.33;;
44165;SDS011;30476;53.468;9.826;2023-06-19T04:10:11;12.23;;;11.33;;
44165;SDS011;30476;53.468;9.826;2023-06-19T04:12:37;12.63;;;11.67;;
44165;SDS011;30476;53.468;9.826;2023-06-19T04:15:06;12.30;;;11.40;;
44165;SDS011;30476;53.468;9.826;2023-06-19T04:17:32;12.60;;;11.70;;
44165;SDS011;30476;53.468;9.826;2023-06-19T04:19:58;12.73;;;11.87;;
44165;SDS011;30476;53.468;9.826;2023-06-19T04:22:23;12.90;;;11.93;;
44165;SDS011;30476;53.468;9.826;2023-06-19T04:24:49;12.40;;;11.53;;
44165;SDS011;30476;53.468;9.826;2023-06-19T04:27:15;13.10;;;12.10;;
44165;SDS011;30476;53.468;9.826;2023-06-19T04:29:41;12.57;;;11.60;;
44165;SDS011;30476;53.468;9.826;2023-06-19T04:32:07;12.73;;;11.73;;
44165;SDS011;30476;53.468;9.826;2023-06-19T04:34:38;11.97;;;11.13;;
44165;SDS011;30476;53.468;9.826;2023-06-19T04:37:04;12.07;;;11.17;;
44165;SDS011;30476;53.468;9.826;2023-06-19T04:39:30;12.47;;;11.37;;
44165;SDS011;30476;53.468;9.826;2023-06-19T04:41:55;12.80;;;11.80;;
44165;SDS011;30476;53.468;9.826;2023-06-19T04:44:21;12.43;;;11.50;;
44165;SDS011;30476;53.468;9.826;2023-06-19T04:46:47;13.40;;;12.20;;
44165;SDS011;30476;53.468;9.826;2023-06-19T04:49:13;13.57;;;12.53;;
44165;SDS011;30476;53.468;9.826;2023-06-19T04:51:40;13.13;;;12.27;;
44165;SDS011;30476;53.468;9.826;2023-06-19T04:54:06;13.33;;;12.30;;
44165;SDS011;30476;53.468;9.826;2023-06-19T04:56:32;13.43;;;12.20;;
44165;SDS011;30476;53.468;9.826;2023-06-19T04:58:58;13.03;;;12.03;;
44165;SDS011;30476;53.468;9.826;2023-06-19T05:01:26;13.90;;;12.60;;
44165;SDS011;30476;53.468;9.826;2023-06-19T05:03:55;14.20;;;12.93;;
44165;SDS011;30476;53.468;9.826;2023-06-19T05:06:24;13.77;;;12.73;;
44165;SDS011;30476;53.468;9.826;2023-06-19T05:08:50;14.37;;;13.30;;
44165;SDS011;30476;53.468;9.826;2023-06-19T05:11:17;13.37;;;12.20;;
44165;SDS011;30476;53.468;9.826;2023-06-19T05:13:44;12.97;;;12.00;;
44165;SDS011;30476;53.468;9.826;2023-06-19T05:16:10;13.57;;;12.57;;
44165;SDS011;30476;53.468;9.826;2023-06-19T05:18:36;13.40;;;12.43;;
44165;SDS011;30476;53.468;9.826;2023-06-19T05:21:02;13.30;;;12.30;;
44165;SDS011;30476;53.468;9.826;2023-06-19T05:23:28;13.13;;;12.13;;
44165;SDS011;30476;53.468;9.826;2023-06-19T05:25:54;12.80;;;11.80;;
44165;SDS011;30476;53.468;9.826;2023-06-19T05:28:19;13.23;;;12.23;;
44165;SDS011;30476;53.468;9.826;2023-06-19T05:30:45;12.47;;;11.63;;
44165;SDS011;30476;53.468;9.826;2023-06-19T05:33:11;13.20;;;12.30;;
44165;SDS011;30476;53.468;9.826;2023-06-19T05:35:41;13.67;;;12.50;;
44165;SDS011;30476;53.468;9.826;2023-06-19T05:38:08;13.30;;;12.10;;
44165;SDS011;30476;53.468;9.826;2023-06-19T05:40:34;12.80;;;11.80;;
44165;SDS011;30476;53.468;9.826;2023-06-19T05:43:00;14.40;;;12.60;;
44165;SDS011;30476;53.468;9.826;2023-06-19T05:45:26;14.40;;;13.20;;
44165;SDS011;30476;53.468;9.826;2023-06-19T05:47:52;12.53;;;11.53;;
44165;SDS011;30476;53.468;9.826;2023-06-19T05:50:18;13.67;;;12.33;;
44165;SDS011;30476;53.468;9.826;2023-06-19T05:52:43;12.60;;;11.73;;
44165;SDS011;30476;53.468;9.826;2023-06-19T05:55:10;12.10;;;11.20;;
44165;SDS011;30476;53.468;9.826;2023-06-19T05:57:36;13.13;;;12.03;;
44165;SDS011;30476;53.468;9.826;2023-06-19T06:00:02;13.57;;;12.23;;
44165;SDS011;30476;53.468;9.826;2023-06-19T06:02:29;15.07;;;13.87;;
44165;SDS011;30476;53.468;9.826;2023-06-19T06:04:54;14.50;;;13.30;;
44165;SDS011;30476;53.468;9.826;2023-06-19T06:07:21;13.60;;;12.60;;
44165;SDS011;30476;53.468;9.826;2023-06-19T06:09:47;13.90;;;12.87;;
44165;SDS011;30476;53.468;9.826;2023-06-19T06:12:13;14.23;;;13.00;;
44165;SDS011;30476;53.468;9.826;2023-06-19T06:14:40;14.37;;;13.20;;
44165;SDS011;30476;53.468;9.826;2023-06-19T06:17:06;14.40;;;13.40;;
44165;SDS011;30476;53.468;9.826;2023-06-19T06:19:31;15.43;;;13.97;;
44165;SDS011;30476;53.468;9.826;2023-06-19T06:21:57;15.10;;;14.03;;
44165;SDS011;30476;53.468;9.826;2023-06-19T06:24:23;14.30;;;13.10;;
44165;SDS011;30476;53.468;9.826;2023-06-19T06:26:48;14.63;;;13.23;;
44165;SDS011;30476;53.468;9.826;2023-06-19T06:29:14;13.60;;;12.60;;
44165;SDS011;30476;53.468;9.826;2023-06-19T06:31:40;15.23;;;13.90;;
44165;SDS011;30476;53.468;9.826;2023-06-19T06:34:07;14.00;;;13.00;;
44165;SDS011;30476;53.468;9.826;2023-06-19T06:36:32;14.40;;;13.20;;
44165;SDS011;30476;53.468;9.826;2023-06-19T06:38:58;14.90;;;13.53;;
44165;SDS011;30476;53.468;9.826;2023-06-19T06:41:24;14.77;;;13.53;;
44165;SDS011;30476;53.468;9.826;2023-06-19T06:43:50;13.37;;;12.27;;
44165;SDS011;30476;53.468;9.826;2023-06-19T06:46:15;14.13;;;12.93;;
44165;SDS011;30476;53.468;9.826;2023-06-19T06:48:41;14.20;;;13.10;;
44165;SDS011;30476;53.468;9.826;2023-06-19T06:51:07;16.10;;;14.50;;
44165;SDS011;30476;53.468;9.826;2023-06-19T06:53:34;14.90;;;13.73;;
44165;SDS011;30476;53.468;9.826;2023-06-19T06:56:00;14.33;;;13.23;;
44165;SDS011;30476;53.468;9.826;2023-06-19T06:58:26;14.83;;;13.43;;
44165;SDS011;30476;53.468;9.826;2023-06-19T07:00:52;14.77;;;13.57;;
44165;SDS011;30476;53.468;9.826;2023-06-19T07:03:18;13.37;;;12.27;;
44165;SDS011;30476;53.468;9.826;2023-06-19T07:05:44;14.37;;;13.27;;
44165;SDS011;30476;53.468;9.826;2023-06-19T07:08:10;14.70;;;13.47;;
44165;SDS011;30476;53.468;9.826;2023-06-19T07:10:36;15.20;;;14.00;;
44165;SDS011;30476;53.468;9.826;2023-06-19T07:13:02;14.97;;;13.87;;
44165;SDS011;30476;53.468;9.826;2023-06-19T07:15:27;14.03;;;13.03;;
44165;SDS011;30476;53.468;9.826;2023-06-19T07:17:53;15.70;;;14.33;;
44165;SDS011;30476;53.468;9.826;2023-06-19T07:20:19;15.30;;;13.90;;
44165;SDS011;30476;53.468;9.826;2023-06-19T07:22:45;13.70;;;12.70;;
44165;SDS011;30476;53.468;9.826;2023-06-19T07:25:11;13.60;;;12.40;;
44165;SDS011;30476;53.468;9.826;2023-06-19T07:27:38;14.23;;;13.00;;
44165;SDS011;30476;53.468;9.826;2023-06-19T07:30:07;13.17;;;12.17;;
44165;SDS011;30476;53.468;9.826;2023-06-19T07:32:33;14.47;;;13.17;;
44165;SDS011;30476;53.468;9.826;2023-06-19T07:34:58;13.80;;;12.87;;
44165;SDS011;30476;53.468;9.826;2023-06-19T07:37:24;13.20;;;12.10;;
44165;SDS011;30476;53.468;9.826;2023-06-19T07:39:50;14.47;;;12.97;;
44165;SDS011;30476;53.468;9.826;2023-06-19T07:42:17;13.77;;;12.60;;
44165;SDS011;30476;53.468;9.826;2023-06-19T07:44:44;13.60;;;12.50;;
44165;SDS011;30476;53.468;9.826;2023-06-19T07:47:10;13.13;;;11.90;;
44165;SDS011;30476;53.468;9.826;2023-06-19T07:49:37;14.60;;;13.13;;
44165;SDS011;30476;53.468;9.826;2023-06-19T07:52:03;14.50;;;13.30;;
44165;SDS011;30476;53.468;9.826;2023-06-19T07:54:29;13.17;;;12.07;;
44165;SDS011;30476;53.468;9.826;2023-06-19T07:56:55;13.40;;;12.23;;
44165;SDS011;30476;53.468;9.826;2023-06-19T07:59:21;13.00;;;12.00;;
44165;SDS011;30476;53.468;9.826;2023-06-19T08:01:47;13.20;;;12.30;;
44165;SDS011;30476;53.468;9.826;2023-06-19T08:04:13;12.00;;;11.20;;
44165;SDS011;30476;53.468;9.826;2023-06-19T08:06:39;14.57;;;13.17;;
44165;SDS011;30476;53.468;9.826;2023-06-19T08:09:05;12.73;;;11.83;;
44165;SDS011;30476;53.468;9.826;2023-06-19T08:11:31;12.00;;;11.00;;
44165;SDS011;30476;53.468;9.826;2023-06-19T08:13:57;11.90;;;10.80;;
44165;SDS011;30476;53.468;9.826;2023-06-19T08:16:24;12.97;;;11.83;;
44165;SDS011;30476;53.468;9.826;2023-06-19T08:18:50;13.27;;;12.17;;
44165;SDS011;30476;53.468;9.826;2023-06-19T08:21:16;11.93;;;11.13;;
44165;SDS011;30476;53.468;9.826;2023-06-19T08:23:42;12.23;;;11.43;;
44165;SDS011;30476;53.468;9.826;2023-06-19T08:26:12;12.77;;;11.87;;
44165;SDS011;30476;53.468;9.826;2023-06-19T08:28:37;13.27;;;11.70;;
44165;SDS011;30476;53.468;9.826;2023-06-19T08:31:03;11.23;;;10.33;;
44165;SDS011;30476;53.468;9.826;2023-06-19T08:33:29;11.87;;;10.70;;
44165;SDS011;30476;53.468;9.826;2023-06-19T08:35:55;11.70;;;10.90;;
44165;SDS011;30476;53.468;9.826;2023-06-19T08:38:21;12.50;;;11.60;;
44165;SDS011;30476;53.468;9.826;2023-06-19T08:40:46;11.00;;;10.20;;
44165;SDS011;30476;53.468;9.826;2023-06-19T08:43:13;9.97;;;9.37;;
44165;SDS011;30476;53.468;9.826;2023-06-19T08:45:39;9.77;;;9.03;;
44165;SDS011;30476;53.468;9.826;2023-06-19T08:48:05;9.70;;;8.90;;
44165;SDS011;30476;53.468;9.826;2023-06-19T08:50:33;8.83;;;8.33;;
44165;SDS011;30476;53.468;9.826;2023-06-19T08:52:59;9.83;;;9.23;;
44165;SDS011;30476;53.468;9.826;2023-06-19T08:55:25;9.90;;;9.30;;
44165;SDS011;30476;53.468;9.826;2023-06-19T08:57:51;8.97;;;8.47;;
44165;SDS011;30476;53.468;9.826;2023-06-19T09:00:24;8.40;;;7.90;;
44165;SDS011;30476;53.468;9.826;2023-06-19T09:02:51;9.17;;;8.57;;
44165;SDS011;30476;53.468;9.826;2023-06-19T09:05:18;8.90;;;8.30;;
44165;SDS011;30476;53.468;9.826;2023-06-19T09:07:46;8.63;;;8.03;;
44165;SDS011;30476;53.468;9.826;2023-06-19T09:10:23;8.60;;;8.00;;
44165;SDS011;30476;53.468;9.826;2023-06-19T09:13:04;9.03;;;8.43;;
44165;SDS011;30476;53.468;9.826;2023-06-19T09:15:31;8.50;;;7.90;;
44165;SDS011;30476;53.468;9.826;2023-06-19T09:18:06;8.27;;;7.77;;
44165;SDS011;30476;53.468;9.826;2023-06-19T09:20:42;8.77;;;8.10;;
44165;SDS011;30476;53.468;9.826;2023-06-19T09:23:12;8.93;;;8.43;;
44165;SDS011;30476;53.468;9.826;2023-06-19T09:25:45;9.50;;;8.90;;
44165;SDS011;30476;53.468;9.826;2023-06-19T09:28:24;10.20;;;9.40;;
44165;SDS011;30476;53.468;9.826;2023-06-19T09:30:52;9.70;;;9.10;;
44165;SDS011;30476;53.468;9.826;2023-06-19T09:33:29;10.10;;;9.40;;
44165;SDS011;30476;53.468;9.826;2023-06-19T09:35:57;9.03;;;8.53;;
44165;SDS011;30476;53.468;9.826;2023-06-19T09:38:25;10.17;;;9.57;;
44165;SDS011;30476;53.468;9.826;2023-06-19T09:40:52;9.50;;;9.00;;
44165;SDS011;30476;53.468;9.826;2023-06-19T09:43:20;9.37;;;8.80;;
44165;SDS011;30476;53.468;9.826;2023-06-19T09:45:49;10.03;;;9.43;;
44165;SDS011;30476;53.468;9.826;2023-06-19T09:48:18;10.17;;;9.40;;
44165;SDS011;30476;53.468;9.826;2023-06-19T09:50:48;10.17;;;9.47;;
44165;SDS011;30476;53.468;9.826;2023-06-19T09:53:20;9.70;;;9.17;;
44165;SDS011;30476;53.468;9.826;2023-06-19T09:55:48;9.93;;;9.20;;
44165;SDS011;30476;53.468;9.826;2023-06-19T09:58:16;9.53;;;8.93;;
44165;SDS011;30476;53.468;9.826;2023-06-19T10:00:46;10.63;;;9.67;;
44165;SDS011;30476;53.468;9.826;2023-06-19T10:03:14;10.63;;;9.80;;
44165;SDS011;30476;53.468;9.826;2023-06-19T10:05:41;9.90;;;9.20;;
44165;SDS011;30476;53.468;9.826;2023-06-19T10:08:08;9.97;;;9.27;;
44165;SDS011;30476;53.468;9.826;2023-06-19T10:10:34;11.23;;;10.47;;
44165;SDS011;30476;53.468;9.826;2023-06-19T10:13:13;10.00;;;9.40;;
44165;SDS011;30476;53.468;9.826;2023-06-19T10:15:43;10.50;;;9.80;;
44165;SDS011;30476;53.468;9.826;2023-06-19T10:18:14;10.90;;;10.20;;
44165;SDS011;30476;53.468;9.826;2023-06-19T10:20:44;10.70;;;9.90;;
44165;SDS011;30476;53.468;9.826;2023-06-19T10:23:12;10.30;;;9.53;;
44165;SDS011;30476;53.468;9.826;2023-06-19T10:25:46;9.33;;;8.80;;
44165;SDS011;30476;53.468;9.826;2023-06-19T10:28:26;10.27;;;9.57;;
44165;SDS011;30476;53.468;9.826;2023-06-19T10:30:59;9.70;;;9.10;;
44165;SDS011;30476;53.468;9.826;2023-06-19T10:33:30;10.60;;;9.80;;
44165;SDS011;30476;53.468;9.826;2023-06-19T10:35:58;9.20;;;8.60;;
44165;SDS011;30476;53.468;9.826;2023-06-19T10:38:28;9.07;;;8.47;;
44165;SDS011;30476;53.468;9.826;2023-06-19T10:40:54;7.80;;;7.30;;
44165;SDS011;30476;53.468;9.826;2023-06-19T10:43:21;8.17;;;7.67;;
44165;SDS011;30476;53.468;9.826;2023-06-19T10:45:50;7.47;;;7.07;;
44165;SDS011;30476;53.468;9.826;2023-06-19T10:48:20;8.33;;;7.63;;
44165;SDS011;30476;53.468;9.826;2023-06-19T10:50:47;8.13;;;7.53;;
44165;SDS011;30476;53.468;9.826;2023-06-19T10:53:32;6.93;;;6.53;;
44165;SDS011;30476;53.468;9.826;2023-06-19T10:55:59;7.70;;;7.30;;
44165;SDS011;30476;53.468;9.826;2023-06-19T10:58:26;7.20;;;6.70;;
44165;SDS011;30476;53.468;9.826;2023-06-19T11:00:53;7.77;;;7.37;;
44165;SDS011;30476;53.468;9.826;2023-06-19T11:03:19;8.33;;;7.83;;
44165;SDS011;30476;53.468;9.826;2023-06-19T11:05:46;7.93;;;7.37;;
44165;SDS011;30476;53.468;9.826;2023-06-19T11:08:19;8.03;;;7.63;;
44165;SDS011;30476;53.468;9.826;2023-06-19T11:10:46;8.57;;;7.97;;
44165;SDS011;30476;53.468;9.826;2023-06-19T11:13:15;7.50;;;7.00;;
44165;SDS011;30476;53.468;9.826;2023-06-19T11:15:42;7.00;;;6.60;;
44165;SDS011;30476;53.468;9.826;2023-06-19T11:18:08;7.80;;;7.30;;
44165;SDS011;30476;53.468;9.826;2023-06-19T11:20:47;8.33;;;7.77;;
44165;SDS011;30476;53.468;9.826;2023-06-19T11:23:16;6.93;;;6.53;;
44165;SDS011;30476;53.468;9.826;2023-06-19T11:25:43;6.93;;;6.53;;
44165;SDS011;30476;53.468;9.826;2023-06-19T11:28:12;7.37;;;6.97;;
44165;SDS011;30476;53.468;9.826;2023-06-19T11:30:39;7.10;;;6.70;;
44165;SDS011;30476;53.468;9.826;2023-06-19T11:33:15;8.00;;;7.40;;
44165;SDS011;30476;53.468;9.826;2023-06-19T11:35:49;7.30;;;6.80;;
44165;SDS011;30476;53.468;9.826;2023-06-19T11:38:16;8.17;;;7.47;;
44165;SDS011;30476;53.468;9.826;2023-06-19T11:40:46;6.23;;;5.93;;
44165;SDS011;30476;53.468;9.826;2023-06-19T11:43:12;8.20;;;7.57;;
44165;SDS011;30476;53.468;9.826;2023-06-19T11:45:49;6.77;;;6.30;;
44165;SDS011;30476;53.468;9.826;2023-06-19T11:48:21;6.80;;;6.40;;
44165;SDS011;30476;53.468;9.826;2023-06-19T11:50:48;7.40;;;7.00;;
44165;SDS011;30476;53.468;9.826;2023-06-19T11:53:14;7.73;;;7.20;;
44165;SDS011;30476;53.468;9.826;2023-06-19T11:55:39;7.50;;;7.00;;
44165;SDS011;30476;53.468;9.826;2023-06-19T11:58:05;6.53;;;6.23;;
44165;SDS011;30476;53.468;9.826;2023-06-19T12:00:31;6.20;;;5.80;;
44165;SDS011;30476;53.468;9.826;2023-06-19T12:02:57;7.10;;;6.70;;
44165;SDS011;30476;53.468;9.826;2023-06-19T12:05:23;6.03;;;5.73;;
44165;SDS011;30476;53.468;9.826;2023-06-19T12:07:49;6.57;;;6.17;;
44165;SDS011;30476;53.468;9.826;2023-06-19T12:10:15;6.37;;;6.07;;
44165;SDS011;30476;53.468;9.826;2023-06-19T12:12:41;5.97;;;5.57;;
44165;SDS011;30476;53.468;9.826;2023-06-19T12:15:07;7.10;;;6.00;;
44165;SDS011;30476;53.468;9.826;2023-06-19T12:17:33;6.83;;;6.00;;
44165;SDS011;30476;53.468;9.826;2023-06-19T12:19:59;7.30;;;6.70;;
44165;SDS011;30476;53.468;9.826;2023-06-19T12:22:26;6.30;;;5.90;;
44165;SDS011;30476;53.468;9.826;2023-06-19T12:24:52;7.20;;;6.80;;
44165;SDS011;30476;53.468;9.826;2023-06-19T12:27:18;4.77;;;4.50;;
44165;SDS011;30476;53.468;9.826;2023-06-19T12:29:44;5.33;;;5.03;;
44165;SDS011;30476;53.468;9.826;2023-06-19T12:32:09;5.40;;;5.10;;
44165;SDS011;30476;53.468;9.826;2023-06-19T12:34:35;5.47;;;5.27;;
44165;SDS011;30476;53.468;9.826;2023-06-19T12:37:01;5.20;;;4.90;;
44165;SDS011;30476;53.468;9.826;2023-06-19T12:39:27;5.10;;;4.90;;
44165;SDS011;30476;53.468;9.826;2023-06-19T12:41:53;4.97;;;4.67;;
44165;SDS011;30476;53.468;9.826;2023-06-19T12:44:18;4.10;;;3.90;;
44165;SDS011;30476;53.468;9.826;2023-06-19T12:46:46;3.93;;;3.60;;
44165;SDS011;30476;53.468;9.826;2023-06-19T12:49:12;3.70;;;3.50;;
44165;SDS011;30476;53.468;9.826;2023-06-19T12:51:38;3.30;;;3.10;;
44165;SDS011;30476;53.468;9.826;2023-06-19T12:54:03;3.70;;;3.50;;
44165;SDS011;30476;53.468;9.826;2023-06-19T12:56:29;3.50;;;3.20;;
44165;SDS011;30476;53.468;9.826;2023-06-19T12:58:55;4.40;;;4.00;;
44165;SDS011;30476;53.468;9.826;2023-06-19T13:01:21;6.03;;;3.83;;
44165;SDS011;30476;53.468;9.826;2023-06-19T13:03:46;4.60;;;4.17;;
44165;SDS011;30476;53.468;9.826;2023-06-19T13:06:12;5.60;;;5.10;;
44165;SDS011;30476;53.468;9.826;2023-06-19T13:08:38;6.97;;;6.47;;
44165;SDS011;30476;53.468;9.826;2023-06-19T13:11:04;6.53;;;6.03;;
44165;SDS011;30476;53.468;9.826;2023-06-19T13:13:29;5.90;;;5.60;;
44165;SDS011;30476;53.468;9.826;2023-06-19T13:15:55;6.57;;;6.17;;
44165;SDS011;30476;53.468;9.826;2023-06-19T13:18:21;6.53;;;6.00;;
44165;SDS011;30476;53.468;9.826;2023-06-19T13:20:47;7.93;;;7.40;;
44165;SDS011;30476;53.468;9.826;2023-06-19T13:23:13;7.97;;;7.30;;
44165;SDS011;30476;53.468;9.826;2023-06-19T13:25:40;8.07;;;7.57;;
44165;SDS011;30476;53.468;9.826;2023-06-19T13:28:05;8.10;;;7.67;;
44165;SDS011;30476;53.468;9.826;2023-06-19T13:30:31;8.90;;;8.30;;
44165;SDS011;30476;53.468;9.826;2023-06-19T13:32:57;8.50;;;7.93;;
44165;SDS011;30476;53.468;9.826;2023-06-19T13:35:23;8.60;;;8.00;;
44165;SDS011;30476;53.468;9.826;2023-06-19T13:37:48;8.60;;;8.00;;
44165;SDS011;30476;53.468;9.826;2023-06-19T13:40:14;8.80;;;8.20;;
44165;SDS011;30476;53.468;9.826;2023-06-19T13:42:40;7.90;;;7.30;;
44165;SDS011;30476;53.468;9.826;2023-06-19T13:45:06;9.07;;;8.30;;
44165;SDS011;30476;53.468;9.826;2023-06-19T13:47:32;7.93;;;7.30;;
44165;SDS011;30476;53.468;9.826;2023-06-19T13:49:58;7.23;;;6.83;;
44165;SDS011;30476;53.468;9.826;2023-06-19T13:52:23;8.07;;;7.47;;
44165;SDS011;30476;53.468;9.826;2023-06-19T13:54:49;8.53;;;8.10;;
44165;SDS011;30476;53.468;9.826;2023-06-19T13:57:16;8.23;;;7.80;;
44165;SDS011;30476;53.468;9.826;2023-06-19T13:59:41;8.70;;;8.30;;
44165;SDS011;30476;53.468;9.826;2023-06-19T14:02:08;8.70;;;8.30;;
44165;SDS011;30476;53.468;9.826;2023-06-19T14:04:35;8.37;;;7.70;;
44165;SDS011;30476;53.468;9.826;2023-06-19T14:07:01;8.47;;;8.07;;
44165;SDS011;30476;53.468;9.826;2023-06-19T14:09:27;8.03;;;7.63;;
44165;SDS011;30476;53.468;9.826;2023-06-19T14:11:52;9.03;;;8.43;;
44165;SDS011;30476;53.468;9.826;2023-06-19T14:14:18;9.20;;;8.60;;
44165;SDS011;30476;53.468;9.826;2023-06-19T14:16:44;9.90;;;9.30;;
44165;SDS011;30476;53.468;9.826;2023-06-19T14:19:10;11.00;;;10.13;;
44165;SDS011;30476;53.468;9.826;2023-06-19T14:21:36;9.17;;;8.57;;
44165;SDS011;30476;53.468;9.826;2023-06-19T14:24:01;10.47;;;9.67;;
44165;SDS011;30476;53.468;9.826;2023-06-19T14:26:27;9.77;;;9.17;;
44165;SDS011;30476;53.468;9.826;2023-06-19T14:28:53;11.03;;;10.30;;
44165;SDS011;30476;53.468;9.826;2023-06-19T14:31:23;9.00;;;8.30;;